Time,TemperatureF,DewpointF,PressureIn,WindDirection,WindDirectionDegrees,WindSpeedMPH,WindSpeedGustMPH,Humidity,HourlyPrecipIn,Conditions,Clouds,dailyrainin,SolarRadiationWatts/m^2,SoftwareType,DateUTC
2013-08-22 00:12:00,67.2,47.0,30.01,NW,309,3.0,-999.0,49,-99.99,,,0.00,0,weatherlink.com 1.10,2013-08-22 06:12:00,
2013-08-22 00:27:00,67.4,48.0,30.01,NNW,332,0.0,-999.0,50,-99.99,,,0.00,0,weatherlink.com 1.10,2013-08-22 06:27:00,
2013-08-22 00:42:00,66.5,49.0,30.01,North,360,4.0,-999.0,53,-99.99,,,0.00,0,weatherlink.com 1.10,2013-08-22 06:42:00,
2013-08-22 00:57:00,64.7,48.0,30.01,NNE,26,0.0,-999.0,56,-99.99,,,0.00,0,weatherlink.com 1.10,2013-08-22 06:57:00,
2013-08-22 01:12:00,63.8,49.0,30.02,NNW,348,0.0,-999.0,58,-99.99,,,0.00,0,weatherlink.com 1.10,2013-08-22 07:12:00,
2013-08-22 01:27:00,63.8,49.0,30.02,NNW,338,0.0,-999.0,58,-99.99,,,0.00,0,weatherlink.com 1.10,2013-08-22 07:27:00,
2013-08-22 01:42:00,64.3,49.0,30.02,NW,326,3.0,-999.0,57,-99.99,,,0.00,0,weatherlink.com 1.10,2013-08-22 07:42:00,
2013-08-22 01:57:00,65.5,49.0,30.02,WNW,290,0.0,-999.0,55,-99.99,,,0.00,0,weatherlink.com 1.10,2013-08-22 07:57:00,
2013-08-22 02:12:00,66.0,49.0,30.02,West,275,0.0,-999.0,54,-99.99,,,0.00,0,weatherlink.com 1.10,2013-08-22 08:12:00,
2013-08-22 02:27:00,66.6,49.0,30.03,WNW,283,0.0,-999.0,53,-99.99,,,0.00,0,weatherlink.com 1.10,2013-08-22 08:27:00,
2013-08-22 02:42:00,66.5,50.0,30.02,WNW,284,0.0,-999.0,55,-99.99,,,0.00,0,weatherlink.com 1.10,2013-08-22 08:42:00,
2013-08-22 02:57:00,65.5,50.0,30.03,West,271,0.0,-999.0,57,-99.99,,,0.00,0,weatherlink.com 1.10,2013-08-22 08:57:00,
2013-08-22 03:12:00,65.3,51.0,30.02,WNW,288,7.0,-999.0,60,-99.99,,,0.00,0,weatherlink.com 1.10,2013-08-22 09:12:00,
2013-08-22 03:27:00,65.0,51.0,30.02,WNW,290,7.0,-999.0,61,-99.99,,,0.00,0,weatherlink.com 1.10,2013-08-22 09:27:00,
2013-08-22 03:42:00,64.8,51.0,30.02,WNW,293,0.0,-999.0,61,-99.99,,,0.00,0,weatherlink.com 1.10,2013-08-22 09:42:00,
2013-08-22 03:57:00,64.4,51.0,30.02,NW,322,0.0,-999.0,62,-99.99,,,0.00,0,weatherlink.com 1.10,2013-08-22 09:57:00,
2013-08-22 04:12:00,64.0,51.0,30.02,NNW,329,0.0,-999.0,63,-99.99,,,0.00,0,weatherlink.com 1.10,2013-08-22 10:12:00,
2013-08-22 04:27:00,63.6,52.0,30.01,NW,325,0.0,-999.0,65,-99.99,,,0.00,0,weatherlink.com 1.10,2013-08-22 10:27:00,
2013-08-22 04:42:00,63.0,52.0,30.02,NNW,330,0.0,-999.0,67,-99.99,,,0.00,0,weatherlink.com 1.10,2013-08-22 10:42:00,
2013-08-22 06:28:00,61.3,52.0,30.04,West,269,0.0,-999.0,72,-99.99,,,0.00,5,weatherlink.com 1.10,2013-08-22 12:28:00,
2013-08-22 06:43:00,61.3,52.0,30.04,SW,234,0.0,-999.0,71,-99.99,,,0.00,14,weatherlink.com 1.10,2013-08-22 12:43:00,
2013-08-22 06:58:00,61.1,52.0,30.05,SW,219,0.0,-999.0,71,-99.99,,,0.00,32,weatherlink.com 1.10,2013-08-22 12:58:00,
2013-08-22 07:13:00,60.9,51.0,30.04,SSW,198,0.0,-999.0,70,-99.99,,,0.00,63,weatherlink.com 1.10,2013-08-22 13:13:00,
2013-08-22 07:28:00,61.4,51.0,30.05,SSW,198,0.0,-999.0,68,-99.99,,,0.00,104,weatherlink.com 1.10,2013-08-22 13:28:00,
2013-08-22 07:43:00,62.6,51.0,30.05,SSW,198,0.0,-999.0,67,-99.99,,,0.00,197,weatherlink.com 1.10,2013-08-22 13:43:00,
2013-08-22 07:58:00,63.9,51.0,30.05,SSW,198,0.0,-999.0,64,-99.99,,,0.00,197,weatherlink.com 1.10,2013-08-22 13:58:00,
2013-08-22 08:13:00,64.3,51.0,30.05,SSW,198,0.0,-999.0,62,-99.99,,,0.00,248,weatherlink.com 1.10,2013-08-22 14:13:00,
2013-08-22 08:28:00,65.1,52.0,30.06,SSW,198,0.0,-999.0,62,-99.99,,,0.00,332,weatherlink.com 1.10,2013-08-22 14:28:00,
2013-08-22 08:43:00,66.2,52.0,30.06,SSW,201,0.0,-999.0,60,-99.99,,,0.00,360,weatherlink.com 1.10,2013-08-22 14:43:00,
2013-08-22 08:58:00,67.8,51.0,30.06,SSW,202,0.0,-999.0,56,-99.99,,,0.00,415,weatherlink.com 1.10,2013-08-22 14:58:00,
2013-08-22 09:13:00,69.9,52.0,30.06,SW,215,0.0,-999.0,53,-99.99,,,0.00,464,weatherlink.com 1.10,2013-08-22 15:13:00,
2013-08-22 09:28:00,70.8,52.0,30.06,SW,235,0.0,-999.0,51,-99.99,,,0.00,478,weatherlink.com 1.10,2013-08-22 15:28:00,
2013-08-22 09:43:00,71.3,51.0,30.05,SW,229,6.0,-999.0,49,-99.99,,,0.00,504,weatherlink.com 1.10,2013-08-22 15:43:00,
2013-08-22 09:58:00,71.8,51.0,30.05,WSW,239,0.0,-999.0,48,-99.99,,,0.00,592,weatherlink.com 1.10,2013-08-22 15:58:00,
2013-08-22 10:13:00,72.3,51.0,30.05,SW,229,0.0,-999.0,48,-99.99,,,0.00,582,weatherlink.com 1.10,2013-08-22 16:13:00,
2013-08-22 10:28:00,73.5,50.0,30.05,SW,225,3.0,-999.0,44,-99.99,,,0.00,608,weatherlink.com 1.10,2013-08-22 16:28:00,
2013-08-22 10:44:00,74.6,51.0,30.05,WSW,246,0.0,-999.0,43,-99.99,,,0.00,693,weatherlink.com 1.10,2013-08-22 16:44:00,
2013-08-22 10:59:00,75.6,50.0,30.04,SSW,207,0.0,-999.0,40,-99.99,,,0.00,712,weatherlink.com 1.10,2013-08-22 16:59:00,
2013-08-22 11:14:00,76.4,50.0,30.03,SW,224,0.0,-999.0,39,-99.99,,,0.00,698,weatherlink.com 1.10,2013-08-22 17:14:00,
2013-08-22 11:29:00,76.6,49.0,30.03,South,178,0.0,-999.0,38,-99.99,,,0.00,793,weatherlink.com 1.10,2013-08-22 17:29:00,
2013-08-22 11:44:00,77.4,49.0,30.02,South,185,0.0,-999.0,37,-99.99,,,0.00,817,weatherlink.com 1.10,2013-08-22 17:44:00,
2013-08-22 11:59:00,78.6,49.0,30.01,SW,215,1.0,-999.0,36,-99.99,,,0.00,795,weatherlink.com 1.10,2013-08-22 17:59:00,
2013-08-22 12:14:00,79.4,49.0,30.00,SSE,153,0.0,-999.0,35,-99.99,,,0.00,856,weatherlink.com 1.10,2013-08-22 18:14:00,
2013-08-22 12:29:00,79.6,49.0,30.00,SW,222,6.0,-999.0,34,-99.99,,,0.00,817,weatherlink.com 1.10,2013-08-22 18:29:00,
2013-08-22 12:44:00,79.4,49.0,29.99,South,172,0.0,-999.0,35,-99.99,,,0.00,933,weatherlink.com 1.10,2013-08-22 18:44:00,
2013-08-22 12:59:00,80.7,48.0,29.98,South,175,0.0,-999.0,32,-99.99,,,0.00,951,weatherlink.com 1.10,2013-08-22 18:59:00,
2013-08-22 13:14:00,81.9,48.0,29.98,SE,138,0.0,-999.0,31,-99.99,,,0.00,622,weatherlink.com 1.10,2013-08-22 19:14:00,
2013-08-22 13:29:00,81.4,50.0,29.97,SW,221,0.0,-999.0,33,-99.99,,,0.00,795,weatherlink.com 1.10,2013-08-22 19:29:00,
2013-08-22 13:44:00,82.8,50.0,29.96,North,5,3.0,-999.0,32,-99.99,,,0.00,902,weatherlink.com 1.10,2013-08-22 19:44:00,
2013-08-22 13:59:00,84.5,48.0,29.95,NE,40,3.0,-999.0,28,-99.99,,,0.00,851,weatherlink.com 1.10,2013-08-22 19:59:00,
2013-08-22 14:14:00,84.9,49.0,29.95,East,80,0.0,-999.0,29,-99.99,,,0.00,837,weatherlink.com 1.10,2013-08-22 20:14:00,
2013-08-22 14:29:00,85.3,49.0,29.94,North,10,0.0,-999.0,28,-99.99,,,0.00,816,weatherlink.com 1.10,2013-08-22 20:29:00,
2013-08-22 14:44:00,85.3,49.0,29.93,NNW,328,4.0,-999.0,28,-99.99,,,0.00,800,weatherlink.com 1.10,2013-08-22 20:44:00,
2013-08-22 14:59:00,86.3,49.0,29.92,NE,53,0.0,-999.0,27,-99.99,,,0.00,754,weatherlink.com 1.10,2013-08-22 20:59:00,
2013-08-22 15:14:00,86.3,49.0,29.91,ENE,78,6.0,-999.0,27,-99.99,,,0.00,805,weatherlink.com 1.10,2013-08-22 21:14:00,
2013-08-22 15:29:00,87.2,48.0,29.91,NE,38,4.0,-999.0,26,-99.99,,,0.00,622,weatherlink.com 1.10,2013-08-22 21:29:00,
2013-08-22 15:44:00,85.7,47.0,29.90,NNE,30,5.0,-999.0,26,-99.99,,,0.00,257,weatherlink.com 1.10,2013-08-22 21:44:00,
2013-08-22 16:00:00,85.2,47.0,29.90,NE,49,2.0,-999.0,26,-99.99,,,0.00,274,weatherlink.com 1.10,2013-08-22 22:00:00,
2013-08-22 16:15:00,85.0,47.0,29.89,ENE,69,6.0,-999.0,27,-99.99,,,0.00,522,weatherlink.com 1.10,2013-08-22 22:15:00,
2013-08-22 16:30:00,85.6,47.0,29.89,ENE,62,0.0,-999.0,26,-99.99,,,0.00,663,weatherlink.com 1.10,2013-08-22 22:30:00,
2013-08-22 16:45:00,86.5,48.0,29.89,South,172,5.0,-999.0,26,-99.99,,,0.00,538,weatherlink.com 1.10,2013-08-22 22:45:00,
2013-08-22 17:00:00,84.9,46.0,29.88,SSE,166,0.0,-999.0,26,-99.99,,,0.00,149,weatherlink.com 1.10,2013-08-22 23:00:00,
2013-08-22 17:15:00,84.1,49.0,29.89,SSE,163,0.0,-999.0,29,-99.99,,,0.00,153,weatherlink.com 1.10,2013-08-22 23:15:00,
2013-08-22 17:30:00,80.4,49.0,29.88,ESE,115,8.0,-999.0,33,-99.99,,,0.00,172,weatherlink.com 1.10,2013-08-22 23:30:00,
2013-08-22 17:45:00,81.5,46.0,29.89,SE,130,7.0,-999.0,29,-99.99,,,0.00,65,weatherlink.com 1.10,2013-08-22 23:45:00,
2013-08-22 18:00:00,78.2,49.0,29.90,WNW,299,10.0,-999.0,36,-99.99,,,0.00,79,weatherlink.com 1.10,2013-08-23 00:00:00,
2013-08-22 18:15:00,76.6,50.0,29.89,WNW,298,5.0,-999.0,39,-99.99,,,0.00,65,weatherlink.com 1.10,2013-08-23 00:15:00,
2013-08-22 18:30:00,75.6,50.0,29.89,WNW,294,9.0,-999.0,41,-99.99,,,0.00,40,weatherlink.com 1.10,2013-08-23 00:30:00,
2013-08-22 18:45:00,75.5,51.0,29.89,North,355,0.0,-999.0,43,-99.99,,,0.00,79,weatherlink.com 1.10,2013-08-23 00:45:00,
2013-08-22 19:00:00,73.7,53.0,29.89,NNW,338,0.0,-999.0,49,-99.99,,,0.00,58,weatherlink.com 1.10,2013-08-23 01:00:00,
2013-08-22 19:15:00,73.5,52.0,29.88,WNW,291,0.0,-999.0,48,-99.99,,,0.00,40,weatherlink.com 1.10,2013-08-23 01:15:00,
2013-08-22 19:30:00,73.2,53.0,29.88,NNE,17,4.0,-999.0,49,-99.99,,,0.00,21,weatherlink.com 1.10,2013-08-23 01:30:00,
2013-08-22 19:45:00,72.4,51.0,29.88,North,355,2.0,-999.0,47,-99.99,,,0.00,18,weatherlink.com 1.10,2013-08-23 01:45:00,
2013-08-22 20:00:00,73.1,50.0,29.87,North,355,5.0,-999.0,45,-99.99,,,0.00,11,weatherlink.com 1.10,2013-08-23 02:00:00,
2013-08-22 20:15:00,72.6,51.0,29.88,North,360,5.0,-999.0,46,-99.99,,,0.00,0,weatherlink.com 1.10,2013-08-23 02:15:00,
2013-08-22 20:30:00,71.7,52.0,29.89,NNE,13,0.0,-999.0,51,-99.99,,,0.00,0,weatherlink.com 1.10,2013-08-23 02:30:00,
2013-08-22 20:45:00,70.5,49.0,29.89,NE,42,0.0,-999.0,47,-99.99,,,0.00,0,weatherlink.com 1.10,2013-08-23 02:45:00,
2013-08-22 21:00:00,71.2,47.0,29.90,NE,44,3.0,-999.0,42,-99.99,,,0.00,0,weatherlink.com 1.10,2013-08-23 03:00:00,
2013-08-22 21:15:00,72.2,48.0,29.91,SE,146,0.0,-999.0,43,-99.99,,,0.00,0,weatherlink.com 1.10,2013-08-23 03:15:00,
2013-08-22 21:30:00,71.3,50.0,29.91,SSE,148,0.0,-999.0,48,-99.99,,,0.00,0,weatherlink.com 1.10,2013-08-23 03:30:00,
2013-08-22 21:45:00,71.3,50.0,29.92,SSE,149,4.0,-999.0,48,-99.99,,,0.00,0,weatherlink.com 1.10,2013-08-23 03:45:00,
2013-08-22 22:00:00,70.8,51.0,29.92,SSE,149,0.0,-999.0,49,-99.99,,,0.00,0,weatherlink.com 1.10,2013-08-23 04:00:00,
2013-08-22 22:15:00,70.5,50.0,29.92,SSE,149,0.0,-999.0,49,-99.99,,,0.00,0,weatherlink.com 1.10,2013-08-23 04:15:00,
2013-08-22 22:30:00,70.3,51.0,29.92,SSE,149,0.0,-999.0,50,-99.99,,,0.00,0,weatherlink.com 1.10,2013-08-23 04:30:00,
2013-08-22 22:45:00,70.3,51.0,29.91,SSE,149,0.0,-999.0,51,-99.99,,,0.00,0,weatherlink.com 1.10,2013-08-23 04:45:00,
2013-08-22 23:00:00,70.1,51.0,29.91,SSE,149,0.0,-999.0,51,-99.99,,,0.00,0,weatherlink.com 1.10,2013-08-23 05:00:00,
2013-08-22 23:15:00,69.9,50.0,29.91,SSE,149,0.0,-999.0,50,-99.99,,,0.00,0,weatherlink.com 1.10,2013-08-23 05:15:00,
2013-08-22 23:30:00,67.2,51.0,29.91,NNE,24,4.0,-999.0,56,-99.99,,,0.00,0,weatherlink.com 1.10,2013-08-23 05:30:00,
2013-08-22 23:45:00,64.0,50.0,29.91,NE,45,4.0,-999.0,60,-99.99,,,0.00,0,weatherlink.com 1.10,2013-08-23 05:45:00,